Time;durP1;ratioP1;P1;durP2;ratioP2;P2;SDS_P1;SDS_P2;PMS_P1;PMS_P2;Temp;Humidity;BMP_temperature;BMP_pressure;BME280_temperature;BME280_humidity;BME280_pressure;Samples;Min_cycle;Max_cycle;Signal;HPM_P1;HPM_P2
2022/06/13 00:01:56;;;;;;;15.05;2.53;;;11.90;68.10;;;;;;4127170;28;20029;-86
2022/06/13 00:03:58;;;;;;;13.98;3.05;;;11.80;68.00;;;;;;4132805;28;20022;-86
2022/06/13 00:06:00;;;;;;;9.98;2.58;;;11.80;68.80;;;;;;4125052;28;20069;-86
2022/06/13 00:08:01;;;;;;;21.05;4.13;;;11.80;68.00;;;;;;4110535;28;20506;-87
2022/06/13 00:10:02;;;;;;;14.27;2.70;;;11.80;68.70;;;;;;4134273;28;20080;-86
2022/06/13 00:12:04;;;;;;;17.63;2.97;;;11.70;67.90;;;;;;4133592;28;20112;-86
2022/06/13 00:14:06;;;;;;;18.52;3.25;;;11.70;68.00;;;;;;4131095;28;20061;-86
2022/06/13 00:16:08;;;;;;;20.38;3.00;;;11.70;68.00;;;;;;4128782;28;20486;-86
2022/06/13 00:18:08;;;;;;;16.98;2.92;;;11.70;68.20;;;;;;4130908;28;20025;-86
2022/06/13 00:20:10;;;;;;;11.90;2.92;;;11.60;68.00;;;;;;4149963;28;20071;-86
2022/06/13 00:22:10;;;;;;;11.00;2.40;;;11.60;68.10;;;;;;4124970;28;20081;-86
2022/06/13 00:24:11;;;;;;;21.05;2.85;;;11.60;68.10;;;;;;4131827;28;20026;-86
2022/06/13 00:26:13;;;;;;;19.65;3.63;;;11.60;68.30;;;;;;4134882;28;20469;-86
2022/06/13 00:28:14;;;;;;;15.73;2.95;;;11.50;68.20;;;;;;4134261;28;20022;-86
2022/06/13 00:30:15;;;;;;;14.57;2.60;;;11.50;68.30;;;;;;4134546;28;20497;-85
2022/06/13 00:32:16;;;;;;;17.42;2.45;;;11.50;68.30;;;;;;4130927;28;20033;-86
2022/06/13 00:34:17;;;;;;;11.85;2.67;;;11.50;68.30;;;;;;4134724;28;20100;-86
2022/06/13 00:36:21;;;;;;;12.73;2.67;;;11.50;68.40;;;;;;4131641;28;20103;-85
2022/06/13 00:38:21;;;;;;;14.65;3.08;;;11.50;68.40;;;;;;4132947;28;20038;-86
2022/06/13 00:40:22;;;;;;;18.17;3.20;;;11.50;68.50;;;;;;4127008;28;20492;-85
2022/06/13 00:42:26;;;;;;;13.57;2.25;;;11.40;68.50;;;;;;4132428;28;20034;-86
2022/06/13 00:45:14;;;;;;;14.90;2.80;;;11.40;68.40;;;;;;4135260;28;20092;-86
2022/06/13 00:47:39;;;;;;;16.48;2.90;;;11.40;68.80;;;;;;4129837;28;20127;-85
2022/06/13 00:50:01;;;;;;;14.18;2.65;;;11.30;68.30;;;;;;4137318;28;20030;-86
2022/06/13 00:52:29;;;;;;;12.23;2.63;;;11.30;68.40;;;;;;4129091;28;20049;-85
2022/06/13 00:54:52;;;;;;;17.95;2.83;;;11.30;68.50;;;;;;4132025;28;20060;-86
2022/06/13 00:57:18;;;;;;;17.17;3.03;;;11.30;68.50;;;;;;4133725;28;20445;-86
2022/06/13 00:59:33;;;;;;;19.55;3.65;;;11.20;68.70;;;;;;4129635;28;20034;-86
2022/06/13 01:01:34;;;;;;;13.57;2.60;;;11.20;68.60;;;;;;4133031;28;20514;-86
2022/06/13 01:03:36;;;;;;;14.45;2.47;;;11.20;68.60;;;;;;4132858;28;20045;-87
2022/06/13 01:05:41;;;;;;;17.10;2.88;;;11.20;68.80;;;;;;4134086;28;20157;-85
2022/06/13 01:07:43;;;;;;;16.50;2.88;;;11.10;68.70;;;;;;4132779;28;20494;-86
2022/06/13 01:12:37;;;;;;;15.48;2.88;;;11.10;68.80;;;;;;4134430;28;20026;-86
2022/06/13 01:15:08;;;;;;;14.02;2.80;;;11.10;68.90;;;;;;4133963;28;20042;-86
2022/06/13 01:17:56;;;;;;;17.75;3.15;;;11.10;68.90;;;;;;4141995;28;20853;-86
2022/06/13 01:20:35;;;;;;;14.60;2.47;;;11.00;69.20;;;;;;4132521;28;20371;-86
2022/06/13 01:23:34;;;;;;;20.15;3.10;;;11.00;68.90;;;;;;4132331;28;20084;-86
2022/06/13 01:26:19;;;;;;;16.27;3.25;;;11.00;69.30;;;;;;4131813;28;20410;-86
2022/06/13 01:29:08;;;;;;;13.63;2.58;;;10.90;69.10;;;;;;4135101;28;20030;-86
2022/06/13 01:31:37;;;;;;;13.13;3.08;;;10.90;69.30;;;;;;4133691;28;20120;-87
2022/06/13 01:34:31;;;;;;;19.98;3.08;;;10.90;69.20;;;;;;4132004;28;20034;-86
2022/06/13 01:37:18;;;;;;;10.60;2.30;;;10.90;69.40;;;;;;4132711;28;20125;-86
2022/06/13 01:40:06;;;;;;;12.95;2.75;;;10.80;69.50;;;;;;4128983;28;20513;-86
2022/06/13 01:42:37;;;;;;;16.58;3.30;;;10.80;69.40;;;;;;4134043;28;20407;-86
2022/06/13 01:45:13;;;;;;;10.77;2.45;;;10.80;69.50;;;;;;4132018;28;20034;-86
2022/06/13 01:48:00;;;;;;;15.23;2.67;;;10.80;69.70;;;;;;4134549;28;20042;-86
2022/06/13 01:50:30;;;;;;;9.25;2.63;;;10.80;70.00;;;;;;4133118;28;20033;-86
2022/06/13 01:53:19;;;;;;;20.00;3.13;;;10.70;70.10;;;;;;4132709;28;20407;-87
2022/06/13 01:55:48;;;;;;;19.33;3.40;;;10.70;70.00;;;;;;4131490;28;20026;-86
2022/06/13 01:58:01;;;;;;;14.48;2.97;;;10.70;69.90;;;;;;4133440;28;20425;-85
2022/06/13 02:00:34;;;;;;;11.50;2.90;;;10.70;69.90;;;;;;4134291;28;20030;-86
2022/06/13 02:02:47;;;;;;;12.95;3.03;;;10.70;70.10;;;;;;4123884;28;20151;-86
2022/06/13 02:04:59;;;;;;;15.90;2.83;;;10.70;70.10;;;;;;4132420;28;20093;-86
2022/06/13 02:07:20;;;;;;;10.63;2.53;;;10.70;70.20;;;;;;4127421;28;20402;-87
2022/06/13 02:09:26;;;;;;;14.25;2.50;;;10.60;70.40;;;;;;4130209;28;20022;-86
2022/06/13 02:11:54;;;;;;;13.13;2.95;;;10.60;70.30;;;;;;4132426;28;20030;-86
2022/06/13 02:13:58;;;;;;;13.18;2.95;;;10.60;70.70;;;;;;4134224;28;20033;-86
2022/06/13 02:16:06;;;;;;;18.13;2.97;;;10.60;70.40;;;;;;4133338;28;20026;-85
2022/06/13 02:18:15;;;;;;;21.95;3.05;;;10.60;70.60;;;;;;4132106;28;20060;-86
2022/06/13 02:20:25;;;;;;;11.75;2.72;;;10.60;70.60;;;;;;4130589;28;20025;-86
2022/06/13 02:22:39;;;;;;;19.52;3.00;;;10.60;70.60;;;;;;4131249;28;20065;-85
2022/06/13 02:24:44;;;;;;;11.57;2.83;;;10.60;70.60;;;;;;4135895;28;20026;-86
2022/06/13 02:26:48;;;;;;;16.88;3.05;;;10.60;70.70;;;;;;4132723;28;20172;-86
2022/06/13 02:28:55;;;;;;;19.60;3.47;;;10.60;70.70;;;;;;4126555;28;20029;-86
2022/06/13 02:31:29;;;;;;;20.58;3.60;;;10.60;70.80;;;;;;4129129;28;20276;-86
2022/06/13 02:33:42;;;;;;;15.70;3.00;;;10.60;71.20;;;;;;4130831;28;20379;-86
2022/06/13 02:36:02;;;;;;;;;;;10.60;71.00;;;;;;4130650;28;20770;-86
2022/06/13 02:38:08;;;;;;;13.27;2.65;;;10.50;71.50;;;;;;4131064;28;20278;-85
2022/06/13 02:40:20;;;;;;;18.65;2.80;;;10.50;70.70;;;;;;4128517;28;20105;-86
2022/06/13 02:42:26;;;;;;;18.67;3.00;;;10.50;70.60;;;;;;4132458;28;20066;-86
2022/06/13 02:44:51;;;;;;;22.05;3.55;;;10.50;71.00;;;;;;4132742;28;20026;-86
2022/06/13 02:46:59;;;;;;;17.08;2.60;;;10.50;70.90;;;;;;4117038;28;20142;-86
2022/06/13 02:49:22;;;;;;;16.42;3.05;;;10.50;70.80;;;;;;4127767;28;20518;-85
2022/06/13 02:51:47;;;;;;;11.32;2.78;;;10.40;71.00;;;;;;4128959;28;20030;-86
2022/06/13 02:54:00;;;;;;;15.32;3.00;;;10.40;70.90;;;;;;4119254;28;20466;-86
2022/06/13 02:56:31;;;;;;;20.23;3.65;;;10.40;70.90;;;;;;4129215;28;20068;-86
2022/06/13 02:58:45;;;;;;;16.02;3.30;;;10.40;70.90;;;;;;4120413;28;20045;-86
2022/06/13 03:01:09;;;;;;;17.38;3.47;;;10.40;71.10;;;;;;4125248;28;20026;-85
2022/06/13 03:03:21;;;;;;;16.98;3.45;;;10.40;71.20;;;;;;4129248;28;20030;-85
2022/06/13 03:05:37;;;;;;;14.25;3.30;;;10.40;71.20;;;;;;4131760;28;20042;-86
2022/06/13 03:07:47;;;;;;;21.58;3.40;;;10.30;71.10;;;;;;4130223;28;20037;-86
2022/06/13 03:10:01;;;;;;;13.50;3.45;;;10.30;71.40;;;;;;4130472;28;20034;-86
2022/06/13 03:12:34;;;;;;;18.27;4.15;;;10.30;71.80;;;;;;4130577;28;20030;-86
2022/06/13 03:14:54;;;;;;;12.60;2.97;;;10.30;72.20;;;;;;4130737;28;20084;-86
2022/06/13 03:17:10;;;;;;;19.75;3.35;;;10.30;72.20;;;;;;4124223;28;20038;-86
2022/06/13 03:19:31;;;;;;;24.40;3.70;;;10.30;72.50;;;;;;4129670;28;20029;-85
2022/06/13 03:21:39;;;;;;;19.85;3.28;;;10.30;72.70;;;;;;4130680;28;20037;-86
2022/06/13 03:24:03;;;;;;;17.55;3.17;;;10.30;72.50;;;;;;4130183;28;20120;-86
2022/06/13 03:26:20;;;;;;;14.05;3.45;;;10.30;73.00;;;;;;4135460;28;20038;-86
2022/06/13 03:28:30;;;;;;;13.05;2.63;;;10.30;72.90;;;;;;4116792;28;20250;-85
2022/06/13 03:30:32;;;;;;;18.15;3.13;;;10.30;72.70;;;;;;4127009;28;20550;-86
2022/06/13 03:35:16;;;;;;;17.90;3.22;;;10.30;73.20;;;;;;4146958;28;20970;-85
2022/06/13 03:37:25;;;;;;;11.90;3.20;;;10.40;73.20;;;;;;4132439;28;20030;-86
2022/06/13 03:39:37;;;;;;;10.63;2.90;;;10.40;73.20;;;;;;4128869;28;20026;-85
2022/06/13 03:41:43;;;;;;;11.82;2.58;;;10.40;73.20;;;;;;4125066;28;20444;-86
2022/06/13 03:43:54;;;;;;;16.27;2.67;;;10.40;73.30;;;;;;4133854;28;20123;-85
2022/06/13 03:46:07;;;;;;;15.35;2.63;;;10.40;73.50;;;;;;4126189;28;20465;-86
2022/06/13 03:48:13;;;;;;;16.27;2.83;;;10.40;73.20;;;;;;4129348;28;20034;-85
2022/06/13 03:50:25;;;;;;;9.63;2.67;;;10.40;73.40;;;;;;4130441;28;20084;-86
2022/06/13 03:52:29;;;;;;;10.32;2.90;;;10.50;73.50;;;;;;4131353;28;20410;-86
2022/06/13 03:54:33;;;;;;;15.00;2.85;;;10.50;74.40;;;;;;4131103;28;20072;-85
2022/06/13 03:56:58;;;;;;;15.15;2.88;;;10.50;73.70;;;;;;4129714;28;20164;-85
2022/06/13 03:59:08;;;;;;;8.45;2.38;;;10.50;74.10;;;;;;4131608;28;20049;-85
2022/06/13 04:01:18;;;;;;;7.82;2.42;;;10.60;73.80;;;;;;4118211;28;20034;-85
2022/06/13 04:03:20;;;;;;;14.13;3.00;;;10.60;74.10;;;;;;4132439;28;20024;-86
2022/06/13 04:05:36;;;;;;;10.70;2.30;;;10.60;73.80;;;;;;4131514;28;20064;-86
2022/06/13 04:07:37;;;;;;;10.73;2.80;;;10.60;74.20;;;;;;4130756;28;20033;-85
2022/06/13 04:09:48;;;;;;;9.80;2.17;;;10.70;74.00;;;;;;4131263;28;20038;-84
2022/06/13 04:12:16;;;;;;;16.60;2.75;;;10.70;74.20;;;;;;4128076;28;20790;-85
2022/06/13 04:14:31;;;;;;;13.50;2.50;;;10.70;74.30;;;;;;4129479;28;20789;-85
2022/06/13 04:17:06;;;;;;;13.13;2.67;;;10.70;74.10;;;;;;4134535;28;20080;-85
2022/06/13 04:19:48;;;;;;;12.30;2.78;;;10.70;74.50;;;;;;4130831;28;20034;-85
2022/06/13 04:22:40;;;;;;;8.00;2.30;;;10.80;74.40;;;;;;4129373;28;20076;-84
2022/06/13 04:25:05;;;;;;;8.45;2.30;;;10.80;74.30;;;;;;4126346;28;20044;-84
2022/06/13 04:27:12;;;;;;;11.68;2.65;;;10.80;74.00;;;;;;4131766;28;20033;-85
2022/06/13 04:29:20;;;;;;;10.10;2.20;;;10.90;74.20;;;;;;4132789;28;20068;-86
2022/06/13 04:31:24;;;;;;;11.45;2.63;;;10.90;74.20;;;;;;4127225;28;20034;-85
2022/06/13 04:33:30;;;;;;;;;;;10.90;74.30;;;;;;4132309;28;20040;-84
2022/06/13 04:35:34;;;;;;;9.07;2.40;;;10.90;75.20;;;;;;4129454;28;19939;-85
2022/06/13 04:37:37;;;;;;;19.15;3.72;;;11.00;74.30;;;;;;4120750;28;20038;-85
2022/06/13 04:39:39;;;;;;;12.65;2.67;;;11.00;74.30;;;;;;4106071;28;20046;-84
2022/06/13 04:41:43;;;;;;;16.63;2.47;;;11.00;74.40;;;;;;4110692;28;20084;-84
2022/06/13 04:43:47;;;;;;;11.70;2.30;;;11.10;74.50;;;;;;4112739;28;20171;-84
2022/06/13 04:46:01;;;;;;;11.25;2.25;;;11.10;74.60;;;;;;4126479;28;20038;-84
2022/06/13 04:48:02;;;;;;;;;;;11.20;75.10;;;;;;4132992;28;20022;-85
2022/06/13 04:50:07;;;;;;;11.82;2.65;;;11.20;76.60;;;;;;4128230;28;19909;-84
2022/06/13 04:52:13;;;;;;;13.30;2.70;;;11.30;75.90;;;;;;4128789;28;20466;-83
2022/06/13 04:54:32;;;;;;;11.48;2.50;;;11.40;76.50;;;;;;4133350;28;20389;-84
2022/06/13 04:56:34;;;;;;;11.23;2.63;;;11.60;77.20;;;;;;4133739;28;20084;-84
2022/06/13 04:58:39;;;;;;;10.70;2.80;;;11.70;77.20;;;;;;4128661;28;20034;-83
2022/06/13 05:00:40;;;;;;;12.43;2.78;;;11.90;77.30;;;;;;4132935;28;20042;-84
2022/06/13 05:02:47;;;;;;;16.15;3.00;;;11.90;77.10;;;;;;4130580;28;20046;-85
2022/06/13 05:04:49;;;;;;;13.73;2.83;;;12.10;77.00;;;;;;4128858;28;20037;-84
2022/06/13 05:06:54;;;;;;;12.43;2.95;;;12.20;77.10;;;;;;4129517;28;20034;-83
2022/06/13 05:09:03;;;;;;;17.50;3.08;;;12.30;77.10;;;;;;4110375;28;20077;-84
2022/06/13 05:11:22;;;;;;;11.05;2.75;;;12.50;76.80;;;;;;4127077;28;20021;-84
2022/06/13 05:13:25;;;;;;;15.80;2.63;;;12.60;76.10;;;;;;4130459;28;20026;-84
2022/06/13 05:15:30;;;;;;;15.75;2.75;;;12.70;75.90;;;;;;4129654;28;20030;-85
2022/06/13 05:17:51;;;;;;;14.50;3.22;;;12.90;75.80;;;;;;4117289;28;20474;-84
2022/06/13 05:19:55;;;;;;;12.75;2.63;;;13.00;75.20;;;;;;4128263;28;20026;-84
2022/06/13 05:22:05;;;;;;;13.93;2.35;;;13.10;74.20;;;;;;4127095;28;20041;-83
2022/06/13 05:24:28;;;;;;;12.57;2.97;;;13.20;73.60;;;;;;4130186;28;20017;-83
2022/06/13 05:26:31;;;;;;;19.67;2.90;;;13.30;72.90;;;;;;4132644;28;21875;-84
2022/06/13 05:28:34;;;;;;;10.98;2.80;;;13.40;72.40;;;;;;4131514;28;20110;-83
2022/06/13 05:30:35;;;;;;;;;;;13.40;72.00;;;;;;4131351;28;20038;-83
2022/06/13 05:32:36;;;;;;;12.30;2.65;;;13.50;71.40;;;;;;4137454;28;20390;-84
2022/06/13 05:34:41;;;;;;;17.95;2.80;;;13.50;71.20;;;;;;4131650;28;20030;-83
2022/06/13 05:36:42;;;;;;;13.75;3.03;;;13.60;71.00;;;;;;4138119;28;20038;-84
2022/06/13 05:38:59;;;;;;;13.75;2.72;;;13.60;70.60;;;;;;4129695;28;20151;-84
2022/06/13 05:40:59;;;;;;;15.25;2.60;;;13.70;70.50;;;;;;4143129;28;20030;-84
2022/06/13 05:43:00;;;;;;;11.57;2.67;;;13.70;70.40;;;;;;4119122;28;20038;-84
2022/06/13 05:45:01;;;;;;;22.42;4.38;;;13.70;70.40;;;;;;4132657;28;20053;-84
2022/06/13 05:47:02;;;;;;;16.52;2.95;;;13.80;70.40;;;;;;4133044;28;20530;-85
2022/06/13 05:49:04;;;;;;;21.50;3.08;;;13.80;70.30;;;;;;4127136;28;20034;-85
2022/06/13 05:51:05;;;;;;;15.55;2.53;;;13.80;70.20;;;;;;4129614;28;20446;-85
2022/06/13 05:53:06;;;;;;;15.43;3.28;;;13.90;70.00;;;;;;4133646;28;20068;-84
2022/06/13 05:55:07;;;;;;;14.63;2.50;;;14.00;69.80;;;;;;4124944;28;20433;-85
2022/06/13 05:57:10;;;;;;;15.07;2.47;;;14.00;69.50;;;;;;4130039;28;20026;-85
2022/06/13 05:59:11;;;;;;;10.50;2.60;;;14.00;69.40;;;;;;4115912;28;20037;-84
2022/06/13 06:01:15;;;;;;;17.95;3.13;;;14.10;69.20;;;;;;4124844;28;20054;-86
2022/06/13 06:03:16;;;;;;;16.42;3.38;;;14.10;69.10;;;;;;4129247;28;20494;-85
2022/06/13 06:05:17;;;;;;;13.43;2.70;;;14.10;69.00;;;;;;4135234;28;20052;-85
2022/06/13 06:07:18;;;;;;;16.70;2.55;;;14.10;68.60;;;;;;4128978;28;20033;-85
2022/06/13 06:09:19;;;;;;;15.98;2.88;;;14.20;68.70;;;;;;4134772;28;20895;-84
2022/06/13 06:11:21;;;;;;;17.60;2.90;;;14.20;68.70;;;;;;4134700;28;20040;-85
2022/06/13 06:13:22;;;;;;;17.77;3.03;;;14.30;68.80;;;;;;4135657;28;20077;-84
2022/06/13 06:15:23;;;;;;;10.93;2.80;;;14.30;68.90;;;;;;4130838;28;20049;-84
2022/06/13 06:17:24;;;;;;;12.90;2.85;;;14.40;68.80;;;;;;4130044;28;20054;-84
2022/06/13 06:19:26;;;;;;;12.30;2.33;;;14.50;68.70;;;;;;4135053;28;20034;-85
2022/06/13 06:21:26;;;;;;;12.57;3.03;;;14.60;68.40;;;;;;4133756;28;20641;-85
2022/06/13 06:23:28;;;;;;;24.15;2.88;;;14.60;68.00;;;;;;4132267;28;20069;-86
2022/06/13 06:25:30;;;;;;;12.32;2.55;;;14.70;67.40;;;;;;4132237;28;20033;-86
2022/06/13 06:27:31;;;;;;;17.30;2.72;;;14.80;66.60;;;;;;4133623;28;20146;-84
2022/06/13 06:29:32;;;;;;;13.23;1.77;;;14.80;65.20;;;;;;4136006;28;20057;-84
2022/06/13 06:31:32;;;;;;;12.38;2.42;;;14.80;65.30;;;;;;4134960;28;20101;-86
2022/06/13 06:33:33;;;;;;;10.10;1.80;;;14.90;64.70;;;;;;4128529;28;20030;-86
2022/06/13 06:35:34;;;;;;;12.02;2.20;;;15.00;64.20;;;;;;4126397;28;20579;-84
2022/06/13 06:37:39;;;;;;;5.45;1.67;;;15.00;63.40;;;;;;4133649;28;20031;-85
2022/06/13 06:39:43;;;;;;;10.27;1.77;;;15.10;63.10;;;;;;4131881;28;20165;-85
2022/06/13 06:41:47;;;;;;;15.90;2.42;;;15.00;62.80;;;;;;4137127;28;20145;-84
2022/06/13 06:43:48;;;;;;;14.35;1.80;;;15.10;62.00;;;;;;4133394;28;20054;-85
2022/06/13 06:45:48;;;;;;;9.07;1.42;;;15.00;61.80;;;;;;4131064;28;20027;-85
2022/06/13 06:47:49;;;;;;;11.82;1.75;;;15.00;61.40;;;;;;4131988;28;20037;-85
2022/06/13 06:49:50;;;;;;;4.72;0.85;;;14.90;60.90;;;;;;4129967;28;20487;-84
2022/06/13 06:51:51;;;;;;;3.80;0.70;;;14.90;60.40;;;;;;4134911;28;20017;-86
2022/06/13 07:00:53;;;;;;;2.03;0.60;;;14.70;57.70;;;;;;4145532;28;20036;-83
2022/06/13 07:02:56;;;;;;;5.25;0.90;;;14.70;57.80;;;;;;4122542;28;20217;-84
2022/06/13 07:05:03;;;;;;;5.68;0.70;;;14.60;57.60;;;;;;4129700;28;20030;-83
2022/06/13 07:07:04;;;;;;;6.57;1.02;;;14.50;58.60;;;;;;4130990;28;20497;-82
2022/06/13 07:09:07;;;;;;;5.07;0.88;;;14.50;58.60;;;;;;4124845;28;20022;-83
2022/06/13 07:13:35;;;;;;;2.88;0.85;;;14.30;59.10;;;;;;4128914;28;20053;-83
2022/06/13 07:15:36;;;;;;;3.22;0.60;;;14.20;59.30;;;;;;4131571;28;20040;-83
2022/06/13 07:17:37;;;;;;;3.17;0.70;;;14.10;59.50;;;;;;4124587;28;20045;-83
2022/06/13 07:19:38;;;;;;;3.05;0.73;;;14.00;60.00;;;;;;4128175;28;20394;-83
2022/06/13 07:21:38;;;;;;;4.07;0.50;;;13.90;60.50;;;;;;4132404;28;20034;-84
2022/06/13 07:23:39;;;;;;;5.63;0.70;;;13.90;61.10;;;;;;4131658;28;21259;-83
2022/06/13 07:25:40;;;;;;;7.57;0.90;;;13.80;61.50;;;;;;4130578;28;20038;-84
2022/06/13 07:27:41;;;;;;;6.18;0.80;;;13.80;62.10;;;;;;4126950;28;20037;-84
2022/06/13 07:29:43;;;;;;;7.60;0.95;;;13.70;62.90;;;;;;4130396;28;20065;-85
2022/06/13 07:31:58;;;;;;;5.78;0.88;;;13.60;63.60;;;;;;4131222;28;20081;-84
2022/06/13 07:33:59;;;;;;;7.80;1.10;;;13.60;64.90;;;;;;4131033;28;20022;-84
2022/06/13 07:35:59;;;;;;;2.95;1.23;;;13.70;65.60;;;;;;4130888;28;20640;-84
2022/06/13 07:38:16;;;;;;;3.22;0.57;;;13.70;66.20;;;;;;4134527;28;20037;-85
2022/06/13 07:40:17;;;;;;;2.00;0.50;;;13.80;66.40;;;;;;4127994;28;20022;-84
2022/06/13 07:42:43;;;;;;;5.03;0.77;;;13.90;66.60;;;;;;4134276;28;20494;-84
2022/06/13 07:45:07;;;;;;;2.13;0.60;;;14.00;67.50;;;;;;4131562;28;20052;-85
2022/06/13 07:47:28;;;;;;;;;;;14.10;66.50;;;;;;4128237;28;20042;-85
2022/06/13 07:49:49;;;;;;;5.10;0.60;;;14.20;66.60;;;;;;4126297;28;20599;-85
2022/06/13 07:52:10;;;;;;;3.10;0.90;;;14.30;66.10;;;;;;4125683;28;20129;-86
2022/06/13 07:54:11;;;;;;;3.60;0.82;;;14.30;66.00;;;;;;4131889;28;20811;-86
2022/06/13 07:56:15;;;;;;;5.47;0.85;;;14.40;66.20;;;;;;4131754;28;20100;-85
2022/06/13 07:58:22;;;;;;;2.80;0.80;;;14.40;66.80;;;;;;4126083;28;20105;-85
2022/06/13 08:00:31;;;;;;;3.20;0.60;;;14.50;67.20;;;;;;4129787;28;20729;-86
2022/06/13 08:02:33;;;;;;;2.15;0.60;;;14.60;67.00;;;;;;4122210;28;20168;-85
2022/06/13 08:04:34;;;;;;;2.30;0.52;;;14.60;67.10;;;;;;4103546;28;21395;-85
2022/06/13 08:06:42;;;;;;;4.72;0.80;;;14.80;67.20;;;;;;4127261;28;20140;-86
2022/06/13 08:08:46;;;;;;;4.50;0.82;;;14.80;66.70;;;;;;4132175;28;20371;-85
2022/06/13 08:10:49;;;;;;;3.47;1.52;;;15.00;66.20;;;;;;4131533;28;20069;-84
2022/06/13 08:12:49;;;;;;;4.43;1.00;;;15.00;66.30;;;;;;4129686;28;20034;-85
2022/06/13 08:14:50;;;;;;;8.57;1.08;;;15.10;66.60;;;;;;4136349;28;20101;-86
2022/06/13 08:16:52;;;;;;;5.38;0.90;;;15.30;66.50;;;;;;4131908;28;20091;-85
2022/06/13 08:18:54;;;;;;;6.03;1.23;;;15.40;66.20;;;;;;4109931;28;20027;-86
2022/06/13 08:20:55;;;;;;;6.63;1.20;;;15.50;65.40;;;;;;4129705;28;20030;-83
2022/06/13 08:22:58;;;;;;;4.32;0.82;;;15.60;65.50;;;;;;4133802;28;20034;-85
2022/06/13 08:24:58;;;;;;;1.90;0.60;;;15.70;65.40;;;;;;4129871;28;20518;-85
2022/06/13 08:26:59;;;;;;;3.30;0.60;;;15.80;64.70;;;;;;4129924;28;20029;-85
2022/06/13 08:29:00;;;;;;;3.08;0.70;;;15.90;64.40;;;;;;4128530;28;20026;-85
2022/06/13 08:31:05;;;;;;;4.30;1.10;;;16.00;64.10;;;;;;4131893;28;20025;-85
2022/06/13 08:33:06;;;;;;;4.90;0.88;;;16.10;64.10;;;;;;4137302;28;20049;-86
2022/06/13 08:35:09;;;;;;;5.22;0.93;;;16.20;64.10;;;;;;4132551;28;20041;-86
2022/06/13 08:37:11;;;;;;;3.90;0.90;;;16.30;63.30;;;;;;4133356;28;20031;-86
2022/06/13 08:39:13;;;;;;;5.88;1.00;;;16.30;62.80;;;;;;4121112;28;20048;-85
2022/06/13 08:41:58;;;;;;;2.77;0.70;;;16.40;62.40;;;;;;4127183;28;20060;-85
2022/06/13 08:44:23;;;;;;;2.53;0.88;;;16.50;60.90;;;;;;4112873;28;20046;-86
2022/06/13 08:46:43;;;;;;;3.00;0.82;;;16.50;60.20;;;;;;4084237;28;20046;-83
2022/06/13 08:48:45;;;;;;;5.13;1.40;;;16.60;58.80;;;;;;4115932;28;20126;-83
2022/06/13 08:50:58;;;;;;;5.05;0.90;;;16.50;58.10;;;;;;4128811;28;20030;-82
2022/06/13 08:53:03;;;;;;;;;;;16.40;57.70;;;;;;4135778;28;20493;-83
2022/06/13 08:55:37;;;;;;;4.10;0.95;;;16.40;57.80;;;;;;4133051;28;19924;-85
2022/06/13 08:57:54;;;;;;;4.28;0.77;;;16.20;58.20;;;;;;4131474;28;20041;-83
2022/06/13 09:00:05;;;;;;;2.50;0.63;;;16.10;58.40;;;;;;4136118;28;20075;-84
2022/06/13 09:02:13;;;;;;;3.80;0.70;;;16.00;58.60;;;;;;4129220;28;20041;-85
2022/06/13 09:04:23;;;;;;;5.75;1.00;;;15.90;59.00;;;;;;4134425;28;20026;-85
2022/06/13 09:06:49;;;;;;;4.05;1.00;;;15.80;59.50;;;;;;4134686;28;20080;-85
2022/06/13 09:09:08;;;;;;;6.55;0.90;;;15.70;59.30;;;;;;4132676;28;20072;-86
2022/06/13 09:11:18;;;;;;;1.92;0.47;;;15.60;59.40;;;;;;4135960;28;20042;-86
2022/06/13 09:13:32;;;;;;;3.30;0.63;;;15.50;60.00;;;;;;4134911;28;20092;-86
2022/06/13 09:15:45;;;;;;;2.30;0.60;;;15.50;60.60;;;;;;4130805;28;20384;-85
2022/06/13 09:17:56;;;;;;;6.10;0.68;;;15.50;61.20;;;;;;4127848;28;20049;-85
2022/06/13 09:20:16;;;;;;;3.72;0.80;;;15.50;61.90;;;;;;4143534;28;20112;-86
2022/06/13 09:22:21;;;;;;;5.22;1.23;;;15.50;62.80;;;;;;4132242;28;20022;-86
2022/06/13 09:25:01;;;;;;;5.47;0.82;;;15.60;63.70;;;;;;4118048;28;20121;-86
2022/06/13 09:27:09;;;;;;;5.85;0.90;;;15.70;64.20;;;;;;4131073;28;20032;-86
2022/06/13 09:29:19;;;;;;;4.28;1.25;;;15.70;64.40;;;;;;4133792;28;20038;-85
2022/06/13 09:31:44;;;;;;;5.43;1.20;;;15.80;63.70;;;;;;4133857;28;20097;-87
2022/06/13 09:33:52;;;;;;;11.63;1.40;;;15.90;63.50;;;;;;4135062;28;20033;-86
2022/06/13 09:35:57;;;;;;;14.07;1.58;;;16.00;63.50;;;;;;4132353;28;20037;-87
2022/06/13 09:38:03;;;;;;;7.10;1.23;;;16.00;63.00;;;;;;4142356;28;20340;-85
2022/06/13 09:40:04;;;;;;;3.40;1.00;;;16.10;62.30;;;;;;4150570;28;20541;-87
2022/06/13 09:42:27;;;;;;;7.15;1.00;;;16.20;61.60;;;;;;4135331;28;20117;-86
2022/06/13 09:44:56;;;;;;;5.55;1.10;;;16.20;61.80;;;;;;4113976;28;20046;-85
2022/06/13 09:47:11;;;;;;;6.93;0.90;;;16.20;61.90;;;;;;4130337;28;20531;-86
2022/06/13 09:49:12;;;;;;;4.10;0.90;;;16.20;61.60;;;;;;4130112;28;20025;-86
2022/06/13 09:51:27;;;;;;;5.32;1.20;;;16.30;61.40;;;;;;4137238;28;20056;-86
2022/06/13 09:53:36;;;;;;;6.38;0.98;;;16.30;60.80;;;;;;4130205;28;20025;-86
2022/06/13 09:55:49;;;;;;;6.38;1.80;;;16.40;60.70;;;;;;4133717;28;20026;-87
2022/06/13 09:58:15;;;;;;;7.80;1.20;;;16.50;60.50;;;;;;4144356;28;20763;-86
2022/06/13 10:00:20;;;;;;;6.78;0.98;;;16.50;59.40;;;;;;4141228;28;20418;-86
2022/06/13 10:02:34;;;;;;;4.82;0.98;;;16.60;59.70;;;;;;4130051;28;20037;-86
2022/06/13 10:05:08;;;;;;;8.43;1.60;;;16.60;58.50;;;;;;4132452;28;20568;-86
2022/06/13 10:07:19;;;;;;;5.00;1.00;;;16.60;57.60;;;;;;4135368;28;20032;-86
2022/06/13 10:09:38;;;;;;;4.75;0.70;;;16.70;57.00;;;;;;4133133;28;22159;-85
2022/06/13 10:11:55;;;;;;;4.93;0.90;;;16.70;56.70;;;;;;4133125;28;20038;-84
2022/06/13 10:14:16;;;;;;;6.25;1.00;;;16.70;57.10;;;;;;4130686;28;20034;-86
2022/06/13 10:16:53;;;;;;;8.55;1.17;;;16.80;57.70;;;;;;4133679;28;20133;-86
2022/06/13 10:19:32;;;;;;;5.68;0.80;;;16.90;57.50;;;;;;4131800;28;20018;-85
2022/06/13 10:22:14;;;;;;;5.25;0.80;;;16.90;57.40;;;;;;4130169;28;20101;-86
2022/06/13 10:24:39;;;;;;;7.40;1.30;;;17.00;57.40;;;;;;4117999;28;20037;-84
2022/06/13 10:27:12;;;;;;;8.38;1.20;;;17.00;56.60;;;;;;4130890;28;20026;-85
2022/06/13 10:29:32;;;;;;;5.05;1.10;;;17.10;56.70;;;;;;4078528;28;20039;-84
2022/06/13 10:31:57;;;;;;;6.78;1.48;;;17.10;56.50;;;;;;4135628;28;20525;-84
2022/06/13 10:34:27;;;;;;;5.85;1.05;;;17.10;56.50;;;;;;4133582;28;20033;-84
2022/06/13 10:36:49;;;;;;;7.00;1.05;;;17.20;56.10;;;;;;4126430;28;20589;-84
2022/06/13 10:39:19;;;;;;;5.28;1.10;;;17.10;55.70;;;;;;4146592;28;20025;-85
2022/06/13 10:41:24;;;;;;;4.90;0.80;;;17.10;55.60;;;;;;4123476;28;23264;-84
2022/06/13 10:43:26;;;;;;;5.85;1.05;;;17.10;56.00;;;;;;4124991;28;20034;-85
2022/06/13 10:45:27;;;;;;;2.85;0.65;;;17.00;55.60;;;;;;4128785;28;20118;-85
2022/06/13 10:47:39;;;;;;;6.47;0.68;;;17.00;54.50;;;;;;4130865;28;20066;-83
2022/06/13 10:49:49;;;;;;;9.32;1.25;;;17.00;53.60;;;;;;4127103;28;20037;-86
2022/06/13 10:51:56;;;;;;;7.00;1.10;;;17.00;53.60;;;;;;4130978;28;20746;-84
2022/06/13 10:54:22;;;;;;;6.53;1.30;;;17.00;53.80;;;;;;4109530;28;20034;-83
2022/06/13 10:56:33;;;;;;;8.48;1.25;;;17.00;54.80;;;;;;4131114;28;20116;-84
2022/06/13 10:58:49;;;;;;;8.23;0.90;;;17.00;53.60;;;;;;4133911;28;20030;-84
2022/06/13 11:01:12;;;;;;;5.38;0.80;;;17.00;53.50;;;;;;4134302;28;20026;-84
2022/06/13 11:03:16;;;;;;;6.10;0.95;;;17.10;53.50;;;;;;4122491;28;20185;-83
2022/06/13 11:05:24;;;;;;;9.70;1.00;;;17.10;54.10;;;;;;4143597;28;20085;-83
2022/06/13 11:07:24;;;;;;;8.63;1.05;;;17.10;54.70;;;;;;4132359;28;20032;-84
2022/06/13 11:09:34;;;;;;;9.77;1.10;;;17.10;54.70;;;;;;4134167;28;20037;-84
2022/06/13 11:11:41;;;;;;;3.20;0.90;;;17.10;54.70;;;;;;4131914;28;20100;-84
2022/06/13 11:13:51;;;;;;;2.70;0.63;;;17.20;54.20;;;;;;4134118;28;20100;-83
2022/06/13 11:23:13;;;;;;;3.92;0.70;;;17.20;50.50;;;;;;4130939;28;20112;-84
2022/06/13 11:25:20;;;;;;;5.05;0.60;;;17.10;51.10;;;;;;4134364;28;20042;-84
2022/06/13 11:27:42;;;;;;;4.28;0.30;;;17.10;51.80;;;;;;4112146;28;20426;-81
2022/06/13 11:29:43;;;;;;;2.15;0.50;;;16.90;50.60;;;;;;4139164;28;20022;-82
2022/06/13 11:31:49;;;;;;;2.72;0.40;;;16.80;51.20;;;;;;4127344;28;20037;-82
2022/06/13 11:33:51;;;;;;;5.38;0.35;;;16.70;52.50;;;;;;4132342;28;20029;-83
2022/06/13 11:36:17;;;;;;;2.63;0.47;;;16.60;53.30;;;;;;4132156;28;20033;-86
2022/06/13 11:38:27;;;;;;;3.53;0.40;;;16.50;53.70;;;;;;4130865;28;20030;-83
2022/06/13 11:41:16;;;;;;;4.55;0.55;;;16.40;55.20;;;;;;4128073;28;20076;-84
2022/06/13 11:43:45;;;;;;;5.78;0.68;;;16.20;55.50;;;;;;4130044;28;20026;-82
2022/06/13 11:46:15;;;;;;;1.77;0.30;;;16.10;56.00;;;;;;4137197;28;20041;-83